createdAt,value
2022-08-25T00:01:31.314Z,76.66
2022-08-25T00:04:00.367Z,76.37
2022-08-25T00:06:29.829Z,76.25
2022-08-25T00:09:00.056Z,75.87
2022-08-25T00:11:29.712Z,76.09
2022-08-25T00:14:01.144Z,77.13
2022-08-25T00:16:28.971Z,77.05
2022-08-25T00:18:58.338Z,78.30
2022-08-25T00:21:26.382Z,78.50
2022-08-25T00:23:54.364Z,78.48
2022-08-25T00:26:21.971Z,78.92
2022-08-25T00:28:49.568Z,79.29
2022-08-25T00:31:18.895Z,79.50
2022-08-25T00:33:47.044Z,79.34
2022-08-25T00:36:15.823Z,79.44
2022-08-25T00:38:44.436Z,79.60
2022-08-25T00:41:13.414Z,79.31
2022-08-25T00:43:40.860Z,79.33
2022-08-25T00:46:17.443Z,79.93
2022-08-25T00:48:45.801Z,80.14
2022-08-25T00:51:14.863Z,80.06
2022-08-25T00:53:42.739Z,80.43
2022-08-25T00:56:11.096Z,80.19
2022-08-25T00:58:39.020Z,80.22
2022-08-25T01:01:06.904Z,79.88
2022-08-25T01:03:35.777Z,80.14
2022-08-25T01:06:04.601Z,80.02
2022-08-25T01:08:32.705Z,79.91
2022-08-25T01:11:03.204Z,79.94
2022-08-25T01:13:50.189Z,80.08
2022-08-25T01:16:17.937Z,80.04
2022-08-25T01:18:54.556Z,79.68
2022-08-25T01:21:23.156Z,79.82
2022-08-25T01:23:51.253Z,79.30
2022-08-25T01:26:30.185Z,79.41
2022-08-25T01:29:17.902Z,79.89
2022-08-25T01:31:46.397Z,79.45
2022-08-25T01:34:15.834Z,79.70
2022-08-25T01:36:43.896Z,80.27
2022-08-25T01:39:12.038Z,80.43
2022-08-25T01:41:48.638Z,80.31
2022-08-25T01:44:19.411Z,81.06
2022-08-25T01:46:46.964Z,80.25
2022-08-25T01:49:14.848Z,80.26
2022-08-25T01:51:52.648Z,80.19
2022-08-25T01:54:20.315Z,80.36
2022-08-25T01:56:48.102Z,80.94
2022-08-25T01:59:24.134Z,81.12
2022-08-25T02:01:59.589Z,81.01
2022-08-25T02:04:32.322Z,80.80
2022-08-25T02:07:01.196Z,80.57
2022-08-25T02:09:28.884Z,80.86
2022-08-25T02:11:56.994Z,80.61
2022-08-25T02:14:24.800Z,80.42
2022-08-25T02:16:53.243Z,80.60
2022-08-25T02:19:21.953Z,79.89
2022-08-25T02:21:49.564Z,79.10
2022-08-25T02:24:17.604Z,78.69
2022-08-25T02:26:45.225Z,78.31
2022-08-25T02:29:13.044Z,78.70
2022-08-25T02:31:40.851Z,79.36
2022-08-25T02:34:09.265Z,79.66
2022-08-25T02:36:37.887Z,79.63
2022-08-25T02:39:06.857Z,79.46
2022-08-25T02:41:35.173Z,80.61
2022-08-25T02:44:03.417Z,80.45
2022-08-25T02:46:31.272Z,80.23
2022-08-25T02:48:59.118Z,80.79
2022-08-25T02:51:28.745Z,81.23
2022-08-25T02:53:57.705Z,81.39
2022-08-25T02:56:25.990Z,81.13
2022-08-25T02:58:54.077Z,81.02
2022-08-25T03:01:22.076Z,80.48
2022-08-25T03:03:56.627Z,81.21
2022-08-25T03:06:25.666Z,81.43
2022-08-25T03:08:53.459Z,80.25
2022-08-25T03:11:21.725Z,80.27
2022-08-25T03:13:52.255Z,80.14
2022-08-25T03:16:20.403Z,79.58
2022-08-25T03:18:48.699Z,79.73
2022-08-25T03:21:16.654Z,79.31
2022-08-25T03:23:45.233Z,78.69
2022-08-25T03:26:31.576Z,75.74
2022-08-25T03:28:59.323Z,71.54
2022-08-25T03:31:27.848Z,69.83
2022-08-25T03:33:55.647Z,68.57
2022-08-25T03:36:23.696Z,65.69
2022-08-25T03:38:52.470Z,63.89
2022-08-25T03:41:27.833Z,62.25
2022-08-25T03:43:55.879Z,60.11
2022-08-25T03:46:25.449Z,56.95
2022-08-25T03:48:53.187Z,56.68
2022-08-25T03:51:28.978Z,54.22
2022-08-25T03:53:58.449Z,52.65
2022-08-25T03:56:27.524Z,50.62
2022-08-25T03:58:55.477Z,49.80
2022-08-25T04:01:23.976Z,48.88
2022-08-25T04:03:51.740Z,47.85
2022-08-25T04:06:19.585Z,47.46
2022-08-25T04:08:47.512Z,46.34
2022-08-25T04:11:17.712Z,46.09
2022-08-25T04:13:49.138Z,46.45
2022-08-25T04:16:17.416Z,46.20
2022-08-25T04:18:46.288Z,45.17
2022-08-25T04:21:14.212Z,45.21
2022-08-25T04:23:43.008Z,45.02
2022-08-25T04:26:12.067Z,44.11
2022-08-25T04:28:39.950Z,44.14
2022-08-25T04:31:11.464Z,43.82
2022-08-25T04:33:39.208Z,43.83
2022-08-25T04:36:11.960Z,42.81
2022-08-25T04:38:42.706Z,41.03
2022-08-25T04:41:14.041Z,41.57
2022-08-25T04:43:43.969Z,40.64
2022-08-25T04:46:20.577Z,39.38
2022-08-25T04:48:51.022Z,39.52
2022-08-25T04:51:24.204Z,39.36
2022-08-25T04:53:52.256Z,38.70
2022-08-25T04:56:24.455Z,37.88
2022-08-25T04:58:53.455Z,37.92
2022-08-25T05:01:23.450Z,36.91
2022-08-25T05:03:56.598Z,35.91
2022-08-25T05:06:24.396Z,37.09
2022-08-25T05:08:54.560Z,37.41
2022-08-25T05:11:25.348Z,37.34
2022-08-25T05:14:05.220Z,37.04
2022-08-25T05:16:35.427Z,36.97
2022-08-25T05:19:06.276Z,36.11
2022-08-25T05:21:34.857Z,36.03
2022-08-25T05:24:02.674Z,36.68
2022-08-25T05:26:31.875Z,36.94
2022-08-25T05:29:01.511Z,38.67
2022-08-25T05:31:30.562Z,40.26
2022-08-25T05:34:02.844Z,41.01
2022-08-25T05:36:37.823Z,41.62
2022-08-25T05:39:07.674Z,41.88
2022-08-25T05:41:36.900Z,42.22
2022-08-25T05:44:05.861Z,42.19
2022-08-25T05:46:36.924Z,41.57
2022-08-25T05:49:07.124Z,41.53
2022-08-25T05:51:39.862Z,41.90
2022-08-25T05:54:10.867Z,41.88
2022-08-25T05:56:41.027Z,41.37
2022-08-25T05:59:09.870Z,40.91
2022-08-25T06:01:58.239Z,40.32
2022-08-25T06:04:31.016Z,41.05
2022-08-25T06:07:00.324Z,40.69
2022-08-25T06:09:31.807Z,40.13
2022-08-25T06:12:03.434Z,40.94
2022-08-25T06:14:32.786Z,40.78
2022-08-25T06:17:03.746Z,39.35
2022-08-25T06:19:50.847Z,39.91
2022-08-25T06:22:24.254Z,39.76
2022-08-25T06:24:55.428Z,39.32
2022-08-25T06:27:23.965Z,39.81
2022-08-25T06:29:56.381Z,38.29
2022-08-25T06:32:33.774Z,38.37
2022-08-25T06:35:05.352Z,38.36
2022-08-25T06:37:34.102Z,38.85
2022-08-25T06:40:03.168Z,38.14
2022-08-25T06:42:32.608Z,37.95
2022-08-25T06:45:00.511Z,36.52
2022-08-25T06:47:28.501Z,37.18
2022-08-25T06:49:58.837Z,37.25
2022-08-25T06:52:29.545Z,36.59
2022-08-25T06:54:58.733Z,36.87
2022-08-25T06:57:26.543Z,36.38
2022-08-25T06:59:57.710Z,36.45
2022-08-25T07:02:26.965Z,35.76
2022-08-25T07:04:55.523Z,36.99
2022-08-25T07:07:23.501Z,35.93
2022-08-25T07:09:51.886Z,36.34
2022-08-25T07:12:21.512Z,36.54
2022-08-25T07:15:03.519Z,36.61
2022-08-25T07:17:36.104Z,34.49
2022-08-25T07:20:08.801Z,35.71
2022-08-25T07:22:42.317Z,34.62
2022-08-25T07:25:12.288Z,34.10
2022-08-25T07:27:42.364Z,34.21
2022-08-25T07:30:11.334Z,33.47
2022-08-25T07:32:43.311Z,32.97
2022-08-25T07:35:20.965Z,33.08
2022-08-25T07:37:57.164Z,32.25
2022-08-25T07:40:32.489Z,33.21
2022-08-25T07:43:26.923Z,31.96
2022-08-25T07:45:55.626Z,32.51
2022-08-25T07:48:25.539Z,32.21
2022-08-25T07:50:53.937Z,32.59
2022-08-25T07:53:22.828Z,31.81
2022-08-25T07:55:51.613Z,31.43
2022-08-25T07:58:22.110Z,32.45
2022-08-25T08:00:54.506Z,32.70
2022-08-25T08:03:44.645Z,31.40
2022-08-25T08:06:12.836Z,30.60
2022-08-25T08:08:45.132Z,30.28
2022-08-25T08:11:22.746Z,31.79
2022-08-25T08:13:53.850Z,29.16
2022-08-25T08:16:30.147Z,29.34
2022-08-25T08:18:59.093Z,28.48
2022-08-25T08:21:32.363Z,28.93
2022-08-25T08:24:00.189Z,29.58
2022-08-25T08:26:48.180Z,29.37
2022-08-25T08:29:16.600Z,29.88
2022-08-25T08:31:48.554Z,29.55
2022-08-25T08:34:17.196Z,29.68
2022-08-25T08:36:45.337Z,28.26
2022-08-25T08:39:13.115Z,28.78
2022-08-25T08:42:18.617Z,29.40
2022-08-25T08:44:46.689Z,27.96
2022-08-25T08:47:36.725Z,27.43
2022-08-25T08:50:06.149Z,28.78
2022-08-25T08:52:48.801Z,28.86
2022-08-25T08:55:31.813Z,27.88
2022-08-25T08:58:06.054Z,27.97
2022-08-25T09:00:41.136Z,29.15
2022-08-25T09:03:33.609Z,28.97
2022-08-25T09:06:02.640Z,27.58
2022-08-25T09:08:37.827Z,27.94
2022-08-25T09:11:44.591Z,27.17
2022-08-25T09:14:35.189Z,28.66
2022-08-25T09:17:25.550Z,28.74
2022-08-25T09:20:18.191Z,27.14
2022-08-25T09:23:16.790Z,27.45
2022-08-25T09:26:04.405Z,28.31
2022-08-25T09:28:43.740Z,28.04
2022-08-25T09:31:27.500Z,26.64
2022-08-25T09:34:33.362Z,27.57
2022-08-25T09:37:06.602Z,26.35
2022-08-25T09:39:36.732Z,27.12
2022-08-25T09:42:05.434Z,28.31
2022-08-25T09:44:35.174Z,27.45
2022-08-25T09:47:14.047Z,28.30
2022-08-25T09:49:43.599Z,28.77
2022-08-25T09:52:28.502Z,26.86
2022-08-25T09:54:57.317Z,27.57
2022-08-25T09:57:45.661Z,27.78
2022-08-25T10:00:13.881Z,27.51
2022-08-25T10:02:44.273Z,28.10
2022-08-25T10:05:26.295Z,28.04
2022-08-25T10:08:28.621Z,27.60
2022-08-25T10:12:06.373Z,28.52
2022-08-25T10:14:49.390Z,28.42
2022-08-25T10:17:33.639Z,28.52
2022-08-25T10:20:24.258Z,27.78
2022-08-25T10:22:54.251Z,28.60
2022-08-25T10:25:29.582Z,27.04
2022-08-25T10:28:29.994Z,27.58
2022-08-25T10:31:12.780Z,26.14
2022-08-25T10:34:08.075Z,26.77
2022-08-25T10:37:01.988Z,26.58
2022-08-25T10:40:04.220Z,26.78
2022-08-25T10:42:42.720Z,26.18
2022-08-25T10:45:48.018Z,27.57
2022-08-25T10:48:38.240Z,26.06
2022-08-25T10:51:25.788Z,26.13
2022-08-25T10:54:12.388Z,26.82
2022-08-25T10:57:21.560Z,26.52
2022-08-25T11:00:01.481Z,25.70
2022-08-25T11:02:45.300Z,25.49
2022-08-25T11:05:28.844Z,25.79
2022-08-25T11:08:39.628Z,26.86
2022-08-25T11:11:26.155Z,24.81
2022-08-25T11:13:57.807Z,26.60
2022-08-25T11:16:48.430Z,26.59
2022-08-25T11:19:32.800Z,26.40
2022-08-25T11:22:10.696Z,25.74
2022-08-25T11:25:01.918Z,26.73
2022-08-25T11:27:56.256Z,27.95
2022-08-25T11:30:27.078Z,27.01
2022-08-25T11:33:20.030Z,26.09
2022-08-25T11:36:43.635Z,26.08
2022-08-25T11:39:53.280Z,26.34
2022-08-25T11:42:58.172Z,27.95
2022-08-25T11:45:48.139Z,27.34
2022-08-25T11:48:56.049Z,26.66
2022-08-25T11:51:43.632Z,27.42
2022-08-25T11:54:26.438Z,27.14
2022-08-25T11:57:20.889Z,27.79
2022-08-25T11:59:57.763Z,26.50
2022-08-25T12:02:45.280Z,25.86
2022-08-25T12:05:19.484Z,26.05
2022-08-25T12:07:49.451Z,26.57
2022-08-25T12:10:29.954Z,26.64
2022-08-25T12:13:01.308Z,27.14
2022-08-25T12:15:56.520Z,26.33
2022-08-25T12:18:28.150Z,26.39
2022-08-25T12:20:59.197Z,25.74
2022-08-25T12:23:44.936Z,26.26
2022-08-25T12:26:18.701Z,25.31
2022-08-25T12:29:08.680Z,25.39
2022-08-25T12:31:52.571Z,25.81
2022-08-25T12:34:31.446Z,25.40
2022-08-25T12:37:06.454Z,24.99
2022-08-25T12:39:43.432Z,24.46
2022-08-25T12:42:33.416Z,24.92
2022-08-25T12:45:20.192Z,25.59
2022-08-25T12:47:49.260Z,24.49
2022-08-25T12:50:39.913Z,25.00
2022-08-25T12:53:18.329Z,24.68
2022-08-25T12:55:52.122Z,24.20
2022-08-25T12:58:20.240Z,24.80
2022-08-25T13:01:35.408Z,24.77
2022-08-25T13:04:44.792Z,24.23
2022-08-25T13:07:39.191Z,24.18
2022-08-25T13:10:21.155Z,25.31
2022-08-25T13:13:09.776Z,23.47
2022-08-25T13:15:48.778Z,24.23
2022-08-25T13:18:28.550Z,23.71
2022-08-25T13:21:25.741Z,24.50
2022-08-25T13:24:04.578Z,24.71
2022-08-25T13:26:35.440Z,24.41
2022-08-25T13:29:09.286Z,24.62
2022-08-25T13:31:38.728Z,24.99
2022-08-25T13:34:19.435Z,23.95
2022-08-25T13:37:06.545Z,24.34
2022-08-25T13:39:56.170Z,24.47
2022-08-25T13:42:28.868Z,25.31
2022-08-25T13:44:59.736Z,24.69
2022-08-25T13:47:45.312Z,24.77
2022-08-25T13:50:26.403Z,24.93
2022-08-25T13:52:56.090Z,23.99
2022-08-25T13:55:30.158Z,24.19
2022-08-25T13:58:06.792Z,23.33
2022-08-25T14:00:47.303Z,24.11
2022-08-25T14:03:34.604Z,23.66
2022-08-25T14:06:11.949Z,24.23
2022-08-25T14:08:44.015Z,25.06
2022-08-25T14:11:15.162Z,25.29
2022-08-25T14:13:44.698Z,25.31
2022-08-25T14:16:15.271Z,24.19
2022-08-25T14:18:55.967Z,24.60
2022-08-25T14:21:28.937Z,23.58
2022-08-25T14:23:56.642Z,23.81
2022-08-25T14:26:25.035Z,23.95
2022-08-25T14:28:54.299Z,24.01
2022-08-25T14:31:31.895Z,23.10
2022-08-25T14:34:01.642Z,23.63
2022-08-25T14:36:29.868Z,23.77
2022-08-25T14:38:58.304Z,24.50
2022-08-25T14:41:26.678Z,24.79
2022-08-25T14:43:54.289Z,23.67
2022-08-25T14:46:23.657Z,23.93
2022-08-25T14:48:55.526Z,23.42
2022-08-25T14:51:23.926Z,23.85
2022-08-25T14:53:57.756Z,24.05
2022-08-25T14:56:25.500Z,24.10
2022-08-25T14:58:57.440Z,24.48
2022-08-25T15:01:29.206Z,24.70
2022-08-25T15:04:11.738Z,24.25
2022-08-25T15:06:39.570Z,24.13
2022-08-25T15:09:13.962Z,24.59
2022-08-25T15:11:43.996Z,25.09
2022-08-25T15:14:12.815Z,24.71
2022-08-25T15:16:42.091Z,24.68
2022-08-25T15:19:11.955Z,25.40
2022-08-25T15:21:39.652Z,24.46
2022-08-25T15:24:08.613Z,24.94
2022-08-25T15:26:40.339Z,24.45
2022-08-25T15:29:08.084Z,24.26
2022-08-25T15:31:37.355Z,25.43
2022-08-25T15:34:06.428Z,25.26
2022-08-25T15:36:40.070Z,25.42
2022-08-25T15:39:09.316Z,25.27
2022-08-25T15:41:38.386Z,25.46
2022-08-25T15:44:06.542Z,25.88
2022-08-25T15:46:35.739Z,26.01
2022-08-25T15:49:03.597Z,26.24
2022-08-25T15:51:32.070Z,26.07
2022-08-25T15:53:59.680Z,26.34
2022-08-25T15:56:27.264Z,26.97
2022-08-25T15:58:55.594Z,26.81
2022-08-25T16:01:25.248Z,27.45
2022-08-25T16:03:53.416Z,27.84
2022-08-25T16:06:21.289Z,27.87
2022-08-25T16:08:49.045Z,28.65
2022-08-25T16:11:21.916Z,29.64
2022-08-25T16:13:50.725Z,29.42
2022-08-25T16:16:19.030Z,29.25
2022-08-25T16:18:47.027Z,29.75
2022-08-25T16:21:21.080Z,29.35
2022-08-25T16:23:48.993Z,29.95
2022-08-25T16:26:16.735Z,29.94
2022-08-25T16:28:45.208Z,30.86
2022-08-25T16:31:13.713Z,30.36
2022-08-25T16:36:17.847Z,30.66
2022-08-25T16:38:48.999Z,30.98
2022-08-25T16:41:23.177Z,32.15
2022-08-25T16:43:51.289Z,31.60
2022-08-25T16:46:20.731Z,31.56
2022-08-25T16:48:48.924Z,31.74
2022-08-25T16:51:19.361Z,33.70
2022-08-25T16:54:08.687Z,32.50
2022-08-25T16:56:37.000Z,32.41
2022-08-25T16:59:05.090Z,33.31
2022-08-25T17:01:35.509Z,32.70
2022-08-25T17:04:03.661Z,32.95
2022-08-25T17:06:35.266Z,32.99
2022-08-25T17:09:03.049Z,33.20
2022-08-25T17:11:34.535Z,34.94
2022-08-25T17:14:03.238Z,34.63
2022-08-25T17:16:33.058Z,34.37
2022-08-25T17:19:05.228Z,34.49
2022-08-25T17:21:36.260Z,33.75
2022-08-25T17:24:05.031Z,34.06
2022-08-25T17:26:33.513Z,33.84
2022-08-25T17:29:01.277Z,33.95
2022-08-25T17:31:30.033Z,34.01
2022-08-25T17:33:58.921Z,34.12
2022-08-25T17:36:27.107Z,33.67
2022-08-25T17:38:57.018Z,33.53
2022-08-25T17:41:25.093Z,33.35
2022-08-25T17:43:52.747Z,33.14
2022-08-25T17:46:21.396Z,33.44
2022-08-25T17:48:48.993Z,33.09
2022-08-25T17:51:16.624Z,33.78
2022-08-25T17:53:44.939Z,33.24
2022-08-25T17:56:15.909Z,33.36
2022-08-25T17:58:44.703Z,32.74
2022-08-25T18:01:22.435Z,33.04
2022-08-25T18:03:50.485Z,33.69
2022-08-25T18:06:18.432Z,33.00
2022-08-25T18:08:50.485Z,33.13
2022-08-25T18:11:23.832Z,32.96
2022-08-25T18:13:53.924Z,33.12
2022-08-25T18:16:21.849Z,33.19
2022-08-25T18:18:49.799Z,32.52
2022-08-25T18:21:20.467Z,32.58
2022-08-25T18:23:48.019Z,32.92
2022-08-25T18:26:15.973Z,32.81
2022-08-25T18:28:43.981Z,33.06
2022-08-25T18:31:13.247Z,33.00
2022-08-25T18:33:44.658Z,33.14
2022-08-25T18:36:12.571Z,33.09
2022-08-25T18:38:59.807Z,33.12
2022-08-25T18:41:29.884Z,33.73
2022-08-25T18:43:57.436Z,33.73
2022-08-25T18:46:25.732Z,33.92
2022-08-25T18:48:53.448Z,33.77
2022-08-25T18:51:23.124Z,33.78
2022-08-25T18:54:00.911Z,33.75
2022-08-25T18:56:31.147Z,33.77
2022-08-25T18:58:59.837Z,34.07
2022-08-25T19:01:29.379Z,34.81
2022-08-25T19:03:57.552Z,34.41
2022-08-25T19:06:25.523Z,34.31
2022-08-25T19:08:53.173Z,34.41
2022-08-25T19:11:22.219Z,34.71
2022-08-25T19:13:51.846Z,34.87
2022-08-25T19:16:39.154Z,34.97
2022-08-25T19:19:10.527Z,35.06
2022-08-25T19:21:42.572Z,35.40
2022-08-25T19:24:11.466Z,35.52
2022-08-25T19:26:40.102Z,36.32
2022-08-25T19:29:11.473Z,36.12
2022-08-25T19:31:41.320Z,35.78
2022-08-25T19:34:10.443Z,36.05
2022-08-25T19:36:38.392Z,36.19
2022-08-25T19:39:08.922Z,36.20
2022-08-25T19:41:37.583Z,35.98
2022-08-25T19:44:07.413Z,36.66
2022-08-25T19:46:37.717Z,37.00
2022-08-25T19:49:16.792Z,36.62
2022-08-25T19:51:47.791Z,36.43
2022-08-25T19:54:23.509Z,37.37
2022-08-25T19:56:54.464Z,36.08
2022-08-25T19:59:25.959Z,36.62
2022-08-25T20:01:54.618Z,37.49
2022-08-25T20:04:24.488Z,37.75
2022-08-25T20:06:55.490Z,38.43
2022-08-25T20:09:39.556Z,39.32
2022-08-25T20:12:10.558Z,41.95
2022-08-25T20:14:39.783Z,40.39
2022-08-25T20:17:23.519Z,43.67
2022-08-25T20:19:55.521Z,41.68
2022-08-25T20:22:26.584Z,42.57
2022-08-25T20:24:58.734Z,44.98
2022-08-25T20:27:49.030Z,47.40
2022-08-25T20:30:29.684Z,44.25
2022-08-25T20:32:59.970Z,45.02
2022-08-25T20:35:30.038Z,44.49
2022-08-25T20:38:01.300Z,45.45
2022-08-25T20:40:30.183Z,42.58
2022-08-25T20:43:00.723Z,40.44
2022-08-25T20:45:31.464Z,39.99
2022-08-25T20:48:00.023Z,40.06
2022-08-25T20:50:29.706Z,39.55
2022-08-25T20:52:58.921Z,39.92
2022-08-25T20:55:29.050Z,37.82
2022-08-25T20:57:57.055Z,37.59
2022-08-25T21:00:25.932Z,36.34
2022-08-25T21:02:59.437Z,36.99
2022-08-25T21:05:32.041Z,36.72
2022-08-25T21:08:00.251Z,36.40
2022-08-25T21:10:28.433Z,36.00
2022-08-25T21:12:56.858Z,36.26
2022-08-25T21:15:25.322Z,35.66
2022-08-25T21:17:54.607Z,34.98
2022-08-25T21:20:23.983Z,34.84
2022-08-25T21:22:52.392Z,35.02
2022-08-25T21:25:22.033Z,35.75
2022-08-25T21:27:49.733Z,35.12
2022-08-25T21:30:18.331Z,35.67
2022-08-25T21:32:53.216Z,35.49
2022-08-25T21:35:25.016Z,35.56
2022-08-25T21:37:53.825Z,35.41
2022-08-25T21:40:23.186Z,35.91
2022-08-25T21:42:51.811Z,35.89
2022-08-25T21:45:20.829Z,35.86
2022-08-25T21:47:49.557Z,36.11
2022-08-25T21:50:18.526Z,35.63
2022-08-25T21:52:46.362Z,34.91
2022-08-25T21:55:16.203Z,35.41
2022-08-25T21:57:44.409Z,35.05
2022-08-25T22:00:13.933Z,34.93
2022-08-25T22:02:43.249Z,34.87
2022-08-25T22:05:12.527Z,35.82
2022-08-25T22:07:44.322Z,35.77
2022-08-25T22:10:16.845Z,36.12
2022-08-25T22:12:47.284Z,36.28
2022-08-25T22:15:15.941Z,36.29
2022-08-25T22:17:43.742Z,36.80
2022-08-25T22:20:12.790Z,36.80
2022-08-25T22:22:40.895Z,36.49
2022-08-25T22:25:09.070Z,36.66
2022-08-25T22:27:37.749Z,36.32
2022-08-25T22:30:07.203Z,36.56
2022-08-25T22:32:35.267Z,36.56
2022-08-25T22:35:03.455Z,36.70
2022-08-25T22:37:31.718Z,37.04
2022-08-25T22:40:02.957Z,37.22
2022-08-25T22:42:31.860Z,37.04
2022-08-25T22:45:00.005Z,37.44
2022-08-25T22:47:28.081Z,37.42
2022-08-25T22:49:58.830Z,37.84
2022-08-25T22:52:33.514Z,38.22
2022-08-25T22:55:04.669Z,38.18
2022-08-25T22:57:36.049Z,39.08
2022-08-25T23:00:06.282Z,38.80
2022-08-25T23:02:35.849Z,38.15
2022-08-25T23:05:03.792Z,38.24
2022-08-25T23:07:36.239Z,39.32
2022-08-25T23:10:06.338Z,39.04
2022-08-25T23:12:34.224Z,38.74
2022-08-25T23:15:01.763Z,38.51
2022-08-25T23:17:31.892Z,38.92
2022-08-25T23:19:59.872Z,38.69
2022-08-25T23:22:28.440Z,38.52
2022-08-25T23:24:56.276Z,38.07
2022-08-25T23:27:25.008Z,38.27
2022-08-25T23:29:52.751Z,37.25
2022-08-25T23:32:20.868Z,37.89
2022-08-25T23:34:48.499Z,37.72
2022-08-25T23:37:18.361Z,37.36
2022-08-25T23:39:50.052Z,37.40
2022-08-25T23:42:19.718Z,37.73
2022-08-25T23:44:49.026Z,37.73
2022-08-25T23:47:17.302Z,37.46
2022-08-25T23:49:45.446Z,37.78
2022-08-25T23:52:17.339Z,37.74
2022-08-25T23:54:48.361Z,38.08
2022-08-25T23:57:16.288Z,38.13
2022-08-25T23:59:46.578Z,37.98
